createdAt,value
2019-01-09T00:01:50.708Z,2.80
2019-01-09T00:04:21.383Z,2.80
2019-01-09T00:06:51.739Z,2.80
2019-01-09T00:09:22.694Z,2.90
2019-01-09T00:11:53.308Z,2.80
2019-01-09T00:14:24.455Z,2.80
2019-01-09T00:16:55.847Z,2.80
2019-01-09T00:19:26.728Z,2.80
2019-01-09T00:21:58.488Z,2.80
2019-01-09T00:24:29.580Z,2.80
2019-01-09T00:27:00.534Z,2.70
2019-01-09T00:29:31.279Z,2.80
2019-01-09T00:32:01.743Z,2.80
2019-01-09T00:34:32.847Z,2.80
2019-01-09T00:37:04.211Z,2.80
2019-01-09T00:39:34.848Z,2.80
2019-01-09T00:42:05.863Z,2.80
2019-01-09T00:44:37.251Z,2.70
2019-01-09T00:47:08.064Z,2.70
2019-01-09T00:49:38.693Z,2.70
2019-01-09T00:52:09.190Z,2.80
2019-01-09T00:54:39.727Z,2.70
2019-01-09T00:57:10.696Z,2.70
2019-01-09T00:59:40.900Z,2.70
2019-01-09T01:02:50.367Z,2.70
2019-01-09T01:05:51.575Z,2.60
2019-01-09T01:08:56.779Z,2.60
2019-01-09T01:11:58.945Z,2.60
2019-01-09T01:15:19.076Z,2.50
2019-01-09T01:18:08.197Z,2.50
2019-01-09T01:21:15.016Z,2.50
2019-01-09T01:24:24.515Z,2.50
2019-01-09T01:27:28.719Z,2.50
2019-01-09T01:30:55.157Z,2.40
2019-01-09T01:33:51.174Z,2.40
2019-01-09T01:37:17.571Z,2.30
2019-01-09T01:40:18.361Z,2.20
2019-01-09T01:43:40.933Z,2.20
2019-01-09T01:46:41.127Z,2.20
2019-01-09T01:50:01.307Z,2.10
2019-01-09T01:53:00.048Z,2.10
2019-01-09T01:56:11.675Z,2.10
2019-01-09T01:59:44.376Z,2.00
2019-01-09T02:02:41.424Z,2.00
2019-01-09T02:05:40.968Z,2.00
2019-01-09T02:08:45.886Z,2.00
2019-01-09T02:11:56.743Z,2.00
2019-01-09T02:15:14.077Z,2.00
2019-01-09T02:18:06.252Z,2.10
2019-01-09T02:21:03.251Z,2.10
2019-01-09T02:24:12.907Z,2.10
2019-01-09T02:27:22.272Z,2.10
2019-01-09T02:30:42.748Z,2.10
2019-01-09T02:33:14.428Z,2.10
2019-01-09T02:35:44.821Z,2.10
2019-01-09T02:38:15.724Z,2.10
2019-01-09T02:40:46.696Z,2.10
2019-01-09T02:43:17.492Z,2.10
2019-01-09T02:45:48.184Z,2.10
2019-01-09T02:48:20.018Z,2.10
2019-01-09T02:50:50.688Z,2.10
2019-01-09T02:53:21.088Z,2.00
2019-01-09T02:55:52.296Z,2.10
2019-01-09T02:58:22.806Z,2.10
2019-01-09T03:00:53.153Z,2.00
2019-01-09T03:03:23.672Z,2.10
2019-01-09T03:05:54.145Z,2.10
2019-01-09T03:08:24.929Z,2.10
2019-01-09T03:10:55.272Z,2.10
2019-01-09T03:13:25.801Z,2.10
2019-01-09T03:15:56.705Z,2.10
2019-01-09T03:18:30.212Z,2.10
2019-01-09T03:21:00.969Z,2.00
2019-01-09T03:23:31.790Z,2.00
2019-01-09T03:26:02.767Z,2.00
2019-01-09T03:28:33.184Z,1.90
2019-01-09T03:31:04.450Z,1.90
2019-01-09T03:33:34.958Z,1.80
2019-01-09T03:36:06.814Z,1.90
2019-01-09T03:38:37.652Z,1.90
2019-01-09T03:41:09.140Z,1.80
2019-01-09T03:43:41.165Z,1.80
2019-01-09T03:46:11.652Z,1.80
2019-01-09T03:48:42.699Z,1.70
2019-01-09T03:51:13.414Z,1.70
2019-01-09T03:53:43.888Z,1.70
2019-01-09T03:56:14.531Z,1.70
2019-01-09T03:58:45.325Z,1.70
2019-01-09T04:01:16.015Z,1.70
2019-01-09T04:03:46.673Z,1.80
2019-01-09T04:06:17.442Z,1.80
2019-01-09T04:08:48.700Z,1.70
2019-01-09T04:11:19.471Z,1.80
2019-01-09T04:13:51.437Z,1.80
2019-01-09T04:16:21.871Z,1.80
2019-01-09T04:18:52.613Z,1.80
2019-01-09T04:21:23.283Z,1.90
2019-01-09T04:23:54.336Z,1.80
2019-01-09T04:26:25.175Z,1.80
2019-01-09T04:28:56.143Z,1.80
2019-01-09T04:31:26.957Z,1.80
2019-01-09T04:33:57.684Z,1.80
2019-01-09T04:36:27.968Z,1.90
2019-01-09T04:38:58.655Z,1.90
2019-01-09T04:41:33.464Z,1.80
2019-01-09T04:44:03.992Z,1.80
2019-01-09T04:46:34.532Z,1.90
2019-01-09T04:49:05.331Z,1.90
2019-01-09T04:51:35.851Z,2.00
2019-01-09T04:54:06.532Z,2.00
2019-01-09T04:56:37.325Z,2.00
2019-01-09T04:59:08.056Z,2.10
2019-01-09T05:01:38.438Z,2.10
2019-01-09T05:04:09.659Z,2.10
2019-01-09T05:06:40.264Z,2.10
2019-01-09T05:09:10.840Z,2.00
2019-01-09T05:11:41.643Z,1.90
2019-01-09T05:14:12.420Z,1.90
2019-01-09T05:16:43.752Z,1.90
2019-01-09T05:19:15.011Z,2.00
2019-01-09T05:21:46.287Z,2.00
2019-01-09T05:24:16.952Z,2.10
2019-01-09T05:26:47.416Z,2.00
2019-01-09T05:29:17.890Z,2.00
2019-01-09T05:31:48.329Z,2.00
2019-01-09T05:34:19.690Z,1.80
2019-01-09T05:36:50.544Z,1.80
2019-01-09T05:39:21.520Z,1.90
2019-01-09T05:41:52.232Z,1.90
2019-01-09T05:44:23.166Z,1.90
2019-01-09T05:46:53.541Z,1.90
2019-01-09T05:49:24.224Z,2.00
2019-01-09T05:51:54.706Z,1.90
2019-01-09T05:54:25.558Z,2.00
2019-01-09T05:56:56.746Z,1.90
2019-01-09T05:59:27.471Z,1.80
2019-01-09T06:01:58.297Z,1.80
2019-01-09T06:04:28.906Z,1.80
2019-01-09T06:06:59.332Z,1.80
2019-01-09T06:09:30.075Z,1.70
2019-01-09T06:12:00.751Z,1.60
2019-01-09T06:14:31.659Z,1.70
2019-01-09T06:17:02.461Z,1.70
2019-01-09T06:19:33.183Z,1.70
2019-01-09T06:22:04.132Z,1.70
2019-01-09T06:24:36.082Z,1.60
2019-01-09T06:27:06.977Z,1.60
2019-01-09T06:29:37.671Z,1.60
2019-01-09T06:32:08.136Z,1.60
2019-01-09T06:34:38.540Z,1.60
2019-01-09T06:37:27.944Z,1.60
2019-01-09T06:39:59.177Z,1.70
2019-01-09T06:42:29.888Z,1.60
2019-01-09T06:45:02.214Z,1.70
2019-01-09T06:47:32.934Z,1.70
2019-01-09T06:50:04.233Z,1.80
2019-01-09T06:52:35.330Z,1.80
2019-01-09T06:55:06.010Z,1.80
2019-01-09T06:57:36.700Z,1.70
2019-01-09T07:00:08.054Z,1.80
2019-01-09T07:02:38.865Z,1.70
2019-01-09T07:05:09.607Z,1.70
2019-01-09T07:07:40.300Z,1.70
2019-01-09T07:10:11.017Z,1.60
2019-01-09T07:12:41.482Z,1.70
2019-01-09T07:15:13.774Z,1.80
2019-01-09T07:17:44.760Z,1.80
2019-01-09T07:20:15.573Z,1.80
2019-01-09T07:22:46.242Z,1.80
2019-01-09T07:25:16.941Z,1.80
2019-01-09T07:27:47.437Z,1.60
2019-01-09T07:30:19.142Z,1.70
2019-01-09T07:32:50.418Z,1.70
2019-01-09T07:35:21.402Z,1.70
2019-01-09T07:37:52.153Z,1.70
2019-01-09T07:40:22.757Z,1.70
2019-01-09T07:42:53.999Z,1.80
2019-01-09T07:45:25.337Z,1.70
2019-01-09T07:47:56.313Z,1.70
2019-01-09T07:50:27.013Z,1.80
2019-01-09T07:52:58.059Z,1.80
2019-01-09T07:55:28.509Z,1.70
2019-01-09T07:57:58.982Z,1.80
2019-01-09T08:00:29.576Z,1.80
2019-01-09T08:03:00.256Z,1.70
2019-01-09T08:05:30.928Z,1.70
2019-01-09T08:08:02.393Z,1.70
2019-01-09T08:10:33.031Z,1.70
2019-01-09T08:13:08.497Z,1.70
2019-01-09T08:15:39.014Z,1.80
2019-01-09T08:18:09.503Z,1.80
2019-01-09T08:20:41.649Z,1.80
2019-01-09T08:23:13.098Z,1.80
2019-01-09T08:25:43.616Z,1.80
2019-01-09T08:28:14.038Z,1.80
2019-01-09T08:30:44.642Z,1.90
2019-01-09T08:33:16.426Z,1.90
2019-01-09T08:35:48.543Z,1.90
2019-01-09T08:38:19.369Z,1.80
2019-01-09T08:40:50.422Z,1.90
2019-01-09T08:43:21.071Z,1.90
2019-01-09T08:45:51.828Z,1.80
2019-01-09T08:48:22.330Z,1.80
2019-01-09T08:50:52.716Z,2.00
2019-01-09T08:53:23.438Z,1.80
2019-01-09T08:55:54.357Z,1.80
2019-01-09T08:58:24.738Z,1.80
2019-01-09T09:00:55.165Z,1.90
2019-01-09T09:03:25.603Z,1.70
2019-01-09T09:05:56.528Z,1.70
2019-01-09T09:08:28.626Z,1.70
2019-01-09T09:10:59.212Z,1.70
2019-01-09T09:13:40.302Z,1.60
2019-01-09T09:16:12.337Z,1.60
2019-01-09T09:18:43.334Z,1.60
2019-01-09T09:21:14.065Z,1.60
2019-01-09T09:23:45.448Z,1.70
2019-01-09T09:26:16.780Z,1.70
2019-01-09T09:28:47.179Z,1.80
2019-01-09T09:31:17.886Z,1.80
2019-01-09T09:33:48.863Z,1.80
2019-01-09T09:36:19.972Z,1.90
2019-01-09T09:38:50.873Z,2.00
2019-01-09T09:41:21.657Z,2.00
2019-01-09T09:43:52.339Z,2.00
2019-01-09T09:46:25.681Z,2.10
2019-01-09T09:48:57.487Z,2.10
2019-01-09T09:51:27.980Z,2.10
2019-01-09T09:53:58.643Z,2.10
2019-01-09T09:56:29.607Z,2.10
2019-01-09T09:59:00.948Z,2.20
2019-01-09T10:01:32.428Z,2.30
2019-01-09T10:04:03.100Z,2.20
2019-01-09T10:06:33.554Z,2.30
2019-01-09T10:09:05.424Z,2.20
2019-01-09T10:11:36.887Z,2.20
2019-01-09T10:14:08.529Z,2.20
2019-01-09T10:16:39.563Z,2.40
2019-01-09T10:19:10.539Z,2.60
2019-01-09T10:21:41.195Z,2.60
2019-01-09T10:24:12.153Z,2.70
2019-01-09T10:26:42.727Z,2.80
2019-01-09T10:29:13.076Z,3.00
2019-01-09T10:31:43.532Z,3.00
2019-01-09T10:34:14.703Z,2.90
2019-01-09T10:36:45.581Z,3.00
2019-01-09T10:39:16.053Z,3.00
2019-01-09T10:41:46.822Z,3.00
2019-01-09T10:44:18.899Z,3.00
2019-01-09T10:46:50.382Z,3.10
2019-01-09T10:49:21.061Z,3.20
2019-01-09T10:51:52.571Z,3.10
2019-01-09T10:54:23.417Z,3.10
2019-01-09T10:56:53.898Z,3.10
2019-01-09T10:59:24.407Z,3.10
2019-01-09T11:01:55.354Z,3.10
2019-01-09T11:04:25.778Z,3.10
2019-01-09T11:06:56.723Z,3.30
2019-01-09T11:09:27.695Z,3.40
2019-01-09T11:11:58.325Z,3.40
2019-01-09T11:14:29.038Z,3.20
2019-01-09T11:16:59.911Z,3.40
2019-01-09T11:19:30.384Z,3.40
2019-01-09T11:22:01.558Z,3.40
2019-01-09T11:24:32.982Z,3.30
2019-01-09T11:27:04.140Z,3.30
2019-01-09T11:29:35.044Z,3.30
2019-01-09T11:32:05.983Z,3.20
2019-01-09T11:34:36.655Z,3.30
2019-01-09T11:37:07.431Z,3.40
2019-01-09T11:39:37.749Z,3.30
2019-01-09T11:42:08.462Z,3.10
2019-01-09T11:44:39.201Z,3.00
2019-01-09T11:47:09.785Z,3.00
2019-01-09T11:49:40.650Z,3.10
2019-01-09T11:52:11.610Z,3.10
2019-01-09T11:54:42.336Z,3.10
2019-01-09T11:57:13.301Z,3.10
2019-01-09T11:59:43.878Z,3.20
2019-01-09T12:02:22.012Z,3.20
2019-01-09T12:04:47.387Z,3.20
2019-01-09T12:07:19.530Z,3.40
2019-01-09T12:09:51.167Z,3.40
2019-01-09T12:12:22.016Z,3.50
2019-01-09T12:14:53.731Z,3.60
2019-01-09T12:17:24.232Z,3.60
2019-01-09T12:19:58.620Z,3.60
2019-01-09T12:22:29.960Z,3.70
2019-01-09T12:25:01.522Z,3.80
2019-01-09T12:27:32.199Z,4.00
2019-01-09T12:30:03.030Z,4.10
2019-01-09T12:32:33.745Z,4.10
2019-01-09T12:35:05.634Z,3.90
2019-01-09T12:37:37.160Z,3.90
2019-01-09T12:40:08.154Z,3.80
2019-01-09T12:42:39.153Z,3.90
2019-01-09T12:45:11.582Z,3.90
2019-01-09T12:47:42.107Z,4.00
2019-01-09T12:50:15.525Z,3.90
2019-01-09T12:52:46.236Z,3.90
2019-01-09T12:55:16.728Z,3.90
2019-01-09T12:57:47.745Z,3.80
2019-01-09T13:00:21.621Z,3.90
2019-01-09T13:02:52.224Z,4.10
2019-01-09T13:05:23.163Z,4.10
2019-01-09T13:07:54.058Z,4.20
2019-01-09T13:10:25.052Z,4.30
2019-01-09T13:12:56.160Z,4.20
2019-01-09T13:15:27.065Z,4.20
2019-01-09T13:17:58.460Z,4.30
2019-01-09T13:20:29.501Z,4.30
2019-01-09T13:23:02.030Z,4.30
2019-01-09T13:25:32.562Z,4.40
2019-01-09T13:28:03.107Z,4.50
2019-01-09T13:30:34.017Z,4.60
2019-01-09T13:33:04.717Z,4.60
2019-01-09T13:35:35.276Z,4.60
2019-01-09T13:38:05.925Z,4.60
2019-01-09T13:40:39.817Z,4.90
2019-01-09T13:43:11.508Z,4.90
2019-01-09T13:45:42.300Z,4.80
2019-01-09T13:48:13.234Z,4.50
2019-01-09T13:50:44.282Z,4.60
2019-01-09T13:53:16.018Z,4.80
2019-01-09T13:55:47.467Z,4.80
2019-01-09T13:58:21.029Z,4.60
2019-01-09T14:00:51.581Z,4.70
2019-01-09T14:03:22.875Z,4.50
2019-01-09T14:05:53.436Z,4.50
2019-01-09T14:08:24.305Z,4.50
2019-01-09T14:10:55.045Z,4.60
2019-01-09T14:13:25.860Z,4.40
2019-01-09T14:15:56.510Z,4.50
2019-01-09T14:18:31.185Z,4.50
2019-01-09T14:21:03.239Z,4.40
2019-01-09T14:23:33.802Z,4.40
2019-01-09T14:26:06.624Z,4.20
2019-01-09T14:28:37.852Z,4.20
2019-01-09T14:31:08.566Z,4.30
2019-01-09T14:33:40.101Z,4.30
2019-01-09T14:36:11.341Z,4.40
2019-01-09T14:38:42.149Z,4.40
2019-01-09T14:41:13.524Z,4.20
2019-01-09T14:43:44.777Z,4.30
2019-01-09T14:46:16.663Z,4.30
2019-01-09T14:48:48.610Z,4.40
2019-01-09T14:51:20.538Z,4.30
2019-01-09T14:53:51.887Z,4.20
2019-01-09T14:56:22.534Z,4.30
2019-01-09T14:58:55.498Z,4.20
2019-01-09T15:01:27.682Z,4.20
2019-01-09T15:03:58.659Z,4.30
2019-01-09T15:06:29.620Z,4.20
2019-01-09T15:09:01.076Z,4.20
2019-01-09T15:11:32.455Z,4.20
2019-01-09T15:14:03.250Z,4.20
2019-01-09T15:16:34.250Z,4.20
2019-01-09T15:19:05.494Z,4.30
2019-01-09T15:21:36.813Z,4.30
2019-01-09T15:24:08.850Z,4.40
2019-01-09T15:26:39.984Z,4.40
2019-01-09T15:29:12.892Z,4.30
2019-01-09T15:31:44.609Z,4.10
2019-01-09T15:34:16.332Z,4.10
2019-01-09T15:36:49.651Z,4.00
2019-01-09T15:39:20.981Z,3.90
2019-01-09T15:41:52.187Z,3.90
2019-01-09T15:44:22.913Z,4.00
2019-01-09T15:46:53.829Z,3.80
2019-01-09T15:49:25.093Z,3.80
2019-01-09T15:51:56.934Z,3.80
2019-01-09T15:54:28.934Z,3.80
2019-01-09T15:57:00.763Z,3.80
2019-01-09T15:59:32.292Z,3.70
2019-01-09T16:02:03.217Z,3.70
2019-01-09T16:04:34.969Z,3.60
2019-01-09T16:07:06.319Z,3.50
2019-01-09T16:09:38.014Z,3.50
2019-01-09T16:12:09.356Z,3.60
2019-01-09T16:14:40.720Z,3.50
2019-01-09T16:17:12.952Z,3.30
2019-01-09T16:19:44.393Z,3.50
2019-01-09T16:22:16.364Z,3.70
2019-01-09T16:24:48.752Z,3.70
2019-01-09T16:27:24.022Z,3.80
2019-01-09T16:29:55.037Z,3.60
2019-01-09T16:32:26.813Z,3.70
2019-01-09T16:34:58.777Z,3.50
2019-01-09T16:37:30.470Z,3.50
2019-01-09T16:40:02.291Z,3.50
2019-01-09T16:42:32.855Z,3.50
2019-01-09T16:45:04.317Z,3.30
2019-01-09T16:47:36.290Z,3.30
2019-01-09T16:50:10.654Z,3.40
2019-01-09T16:52:43.035Z,3.30
2019-01-09T16:55:15.271Z,3.20
2019-01-09T16:57:48.611Z,3.10
2019-01-09T17:00:26.212Z,3.20
2019-01-09T17:02:59.492Z,3.10
2019-01-09T17:05:31.693Z,3.10
2019-01-09T17:08:03.528Z,3.00
2019-01-09T17:10:34.708Z,3.10
2019-01-09T17:13:05.631Z,3.10
2019-01-09T17:15:37.414Z,3.10
2019-01-09T17:18:10.461Z,3.10
2019-01-09T17:20:42.157Z,3.20
2019-01-09T17:23:13.541Z,3.20
2019-01-09T17:25:45.214Z,3.30
2019-01-09T17:28:16.579Z,3.30
2019-01-09T17:30:48.894Z,3.40
2019-01-09T17:33:21.022Z,3.30
2019-01-09T17:35:51.739Z,3.10
2019-01-09T17:38:23.493Z,3.20
2019-01-09T17:40:54.893Z,3.20
2019-01-09T17:43:26.458Z,3.10
2019-01-09T17:45:57.871Z,3.10
2019-01-09T17:48:29.369Z,3.10
2019-01-09T17:51:01.755Z,3.20
2019-01-09T17:53:33.456Z,3.20
2019-01-09T17:56:05.739Z,3.30
2019-01-09T17:58:37.298Z,3.40
2019-01-09T18:01:09.569Z,3.30
2019-01-09T18:03:43.129Z,3.30
2019-01-09T18:06:14.656Z,3.40
2019-01-09T18:08:46.530Z,3.40
2019-01-09T18:11:18.362Z,3.30
2019-01-09T18:13:50.615Z,3.40
2019-01-09T18:16:23.480Z,3.40
2019-01-09T18:18:56.502Z,3.30
2019-01-09T18:21:29.172Z,3.40
2019-01-09T18:23:59.813Z,3.50
2019-01-09T18:26:31.890Z,3.30
2019-01-09T18:29:05.423Z,3.40
2019-01-09T18:31:52.478Z,3.30
2019-01-09T18:34:57.029Z,3.10
2019-01-09T18:37:57.890Z,3.20
2019-01-09T18:41:01.409Z,3.10
2019-01-09T18:44:05.059Z,3.10
2019-01-09T18:47:30.420Z,3.20
2019-01-09T18:50:30.471Z,3.20
2019-01-09T18:53:24.910Z,3.00
2019-01-09T18:55:56.176Z,3.30
2019-01-09T18:58:27.690Z,3.30
2019-01-09T19:00:59.455Z,3.20
2019-01-09T19:03:30.273Z,3.20
2019-01-09T19:06:02.829Z,3.30
2019-01-09T19:08:34.219Z,3.30
2019-01-09T19:11:07.781Z,3.30
2019-01-09T19:13:38.050Z,3.40
2019-01-09T19:16:10.349Z,3.30
2019-01-09T19:18:43.661Z,3.30
2019-01-09T19:21:15.208Z,3.30
2019-01-09T19:23:47.209Z,3.30
2019-01-09T19:26:20.171Z,3.10
2019-01-09T19:28:51.810Z,3.10
2019-01-09T19:31:23.130Z,3.10
2019-01-09T19:33:54.552Z,3.20
2019-01-09T19:36:26.447Z,3.00
2019-01-09T19:38:57.910Z,3.00
2019-01-09T19:41:30.610Z,3.10
2019-01-09T19:44:02.535Z,3.20
2019-01-09T19:46:33.729Z,3.20
2019-01-09T19:49:05.997Z,3.00
2019-01-09T19:51:38.699Z,3.10
2019-01-09T19:54:11.385Z,3.10
2019-01-09T19:56:52.940Z,3.10
2019-01-09T19:59:24.631Z,3.10
2019-01-09T20:01:55.780Z,3.10
2019-01-09T20:04:27.623Z,3.00
2019-01-09T20:06:59.058Z,3.00
2019-01-09T20:09:30.431Z,2.80
2019-01-09T20:12:02.807Z,2.70
2019-01-09T20:14:34.589Z,2.60
2019-01-09T20:17:07.012Z,2.50
2019-01-09T20:19:38.778Z,2.30
2019-01-09T20:22:11.067Z,2.30
2019-01-09T20:24:42.902Z,2.20
2019-01-09T20:27:14.963Z,2.00
2019-01-09T20:29:46.579Z,2.00
2019-01-09T20:32:19.351Z,1.90
2019-01-09T20:34:51.517Z,1.80
2019-01-09T20:37:23.212Z,1.80
2019-01-09T20:39:56.325Z,1.90
2019-01-09T20:42:28.083Z,2.00
2019-01-09T20:44:59.593Z,2.00
2019-01-09T20:47:31.658Z,2.10
2019-01-09T20:50:03.782Z,2.10
2019-01-09T20:52:37.634Z,2.20
2019-01-09T20:55:10.268Z,2.10
2019-01-09T20:57:42.216Z,2.20
2019-01-09T21:00:19.941Z,2.20
2019-01-09T21:02:51.255Z,2.10
2019-01-09T21:05:25.185Z,1.90
2019-01-09T21:07:58.929Z,1.90
2019-01-09T21:10:32.545Z,1.80
2019-01-09T21:13:04.145Z,1.90
2019-01-09T21:15:36.380Z,1.80
2019-01-09T21:18:08.733Z,1.70
2019-01-09T21:20:41.051Z,1.60
2019-01-09T21:23:12.751Z,1.60
2019-01-09T21:25:45.659Z,1.70
2019-01-09T21:28:18.240Z,1.70
2019-01-09T21:30:50.622Z,1.80
2019-01-09T21:33:22.081Z,1.70
2019-01-09T21:35:53.960Z,1.80
2019-01-09T21:38:24.947Z,1.70
2019-01-09T21:40:56.149Z,1.80
2019-01-09T21:43:27.392Z,1.70
2019-01-09T21:45:58.826Z,1.90
2019-01-09T21:48:29.675Z,1.90
2019-01-09T21:51:02.002Z,1.90
2019-01-09T21:53:33.001Z,2.00
2019-01-09T21:56:04.403Z,1.90
2019-01-09T21:58:35.944Z,1.90
2019-01-09T22:01:09.545Z,2.00
2019-01-09T22:03:41.030Z,2.00
2019-01-09T22:06:14.017Z,2.20
2019-01-09T22:08:45.235Z,2.30
2019-01-09T22:11:16.350Z,2.50
2019-01-09T22:13:49.422Z,2.60
2019-01-09T22:16:20.857Z,2.70
2019-01-09T22:18:52.641Z,2.70
2019-01-09T22:21:24.335Z,2.80
2019-01-09T22:23:56.258Z,3.00
2019-01-09T22:26:27.268Z,3.10
2019-01-09T22:28:57.969Z,3.00
2019-01-09T22:31:28.623Z,2.90
2019-01-09T22:33:59.716Z,3.10
2019-01-09T22:36:30.942Z,3.20
2019-01-09T22:39:02.851Z,3.20
2019-01-09T22:41:33.655Z,3.10
2019-01-09T22:44:05.543Z,3.20
2019-01-09T22:46:36.402Z,3.10
2019-01-09T22:49:06.561Z,3.00
2019-01-09T22:51:38.949Z,3.20
2019-01-09T22:54:10.566Z,3.20
2019-01-09T22:56:41.675Z,3.30
2019-01-09T22:59:12.552Z,3.40
2019-01-09T23:01:42.754Z,3.50
2019-01-09T23:04:13.818Z,3.50
2019-01-09T23:06:44.310Z,3.50
2019-01-09T23:09:15.556Z,3.50
2019-01-09T23:11:46.416Z,3.30
2019-01-09T23:14:17.302Z,3.10
2019-01-09T23:16:47.687Z,3.20
2019-01-09T23:19:18.538Z,3.20
2019-01-09T23:21:49.073Z,3.10
2019-01-09T23:24:19.772Z,2.90
2019-01-09T23:26:50.198Z,2.70
2019-01-09T23:29:22.060Z,2.70
2019-01-09T23:31:52.456Z,2.60
2019-01-09T23:34:23.803Z,2.50
2019-01-09T23:36:54.563Z,2.50
2019-01-09T23:39:24.993Z,2.40
2019-01-09T23:41:55.971Z,2.40
2019-01-09T23:44:27.271Z,2.20
2019-01-09T23:46:58.562Z,2.10
2019-01-09T23:49:28.954Z,2.10
2019-01-09T23:51:59.583Z,2.10
2019-01-09T23:54:30.897Z,2.10
2019-01-09T23:57:01.780Z,2.10
2019-01-09T23:59:32.924Z,2.10
